Time;durP1;ratioP1;P1;durP2;ratioP2;P2;SDS_P1;SDS_P2;PMS_P1;PMS_P2;Temp;Humidity;BMP_temperature;BMP_pressure;BME280_temperature;BME280_humidity;BME280_pressure;Samples;Min_cycle;Max_cycle;Signal;HPM_P1;HPM_P2
2023/03/08 00:02:16;;;;;;;;;;;;;;;5.72;100.00;98479.31;5043813;28;20328;-74
2023/03/08 00:04:41;;;;;;;;;;;;;;;5.68;100.00;98480.56;5044659;28;19995;-75
2023/03/08 00:07:07;;;;;;;;;;;;;;;5.46;100.00;98483.47;5042901;28;20284;-75
2023/03/08 00:09:32;;;;;;;;;;;;;;;5.33;100.00;98478.47;5045468;28;20390;-75
2023/03/08 00:11:58;;;;;;;;;;;;;;;5.25;100.00;98487.00;5041627;28;20348;-75
2023/03/08 00:14:23;;;;;;;;;;;;;;;5.34;100.00;98486.19;5042035;28;20437;-74
2023/03/08 00:16:49;;;;;;;;;;;;;;;5.43;100.00;98483.72;5044382;28;19916;-74
2023/03/08 00:19:14;;;;;;;;;;;;;;;5.37;100.00;98485.09;5043758;28;19921;-74
2023/03/08 00:21:40;;;;;;;;;;;;;;;5.29;100.00;98493.63;5042405;28;19952;-74
2023/03/08 00:24:05;;;;;;;;;;;;;;;5.15;100.00;98490.56;5041993;28;19916;-74
2023/03/08 00:26:31;;;;;;;;;;;;;;;5.15;100.00;98486.16;5041386;28;19925;-74
2023/03/08 00:28:56;;;;;;;;;;;;;;;5.13;100.00;98485.47;5044824;28;20341;-75
2023/03/08 00:31:22;;;;;;;;;;;;;;;5.10;100.00;98488.34;5042356;28;19917;-75
2023/03/08 00:33:51;;;;;;;;;;;;;;;5.08;100.00;98485.03;5043566;28;19917;-74
2023/03/08 00:36:17;;;;;;;;;;;;;;;5.14;100.00;98484.50;5027138;28;20063;-75
2023/03/08 00:38:44;;;;;;;;;;;;;;;5.23;100.00;98478.47;5045274;28;19917;-75
2023/03/08 00:41:12;;;;;;;;;;;;;;;5.27;100.00;98490.31;5026725;28;19952;-75
2023/03/08 00:43:38;;;;;;;;;;;;;;;5.38;100.00;98496.38;5044376;28;19979;-75
2023/03/08 00:46:04;;;;;;;;;;;;;;;5.32;100.00;98503.81;5044503;28;19968;-75
2023/03/08 00:48:29;;;;;;;;;;;;;;;5.30;100.00;98491.84;5040627;28;19932;-75
2023/03/08 00:50:55;;;;;;;;;;;;;;;5.30;100.00;98494.47;5043563;28;20027;-75
2023/03/08 00:53:20;;;;;;;;;;;;;;;5.15;100.00;98496.63;5037529;28;19920;-74
2023/03/08 00:55:50;;;;;;;;;;;;;;;5.21;100.00;98490.84;5042184;28;19959;-74
2023/03/08 00:58:16;;;;;;;;;;;;;;;5.32;100.00;98498.56;5041938;28;19916;-75
2023/03/08 01:00:42;;;;;;;;;;;;;;;5.34;100.00;98493.22;5041311;28;19983;-76
2023/03/08 01:03:07;;;;;;;;;;;;;;;5.38;100.00;98499.00;5009948;28;20015;-74
2023/03/08 01:05:33;;;;;;;;;;;;;;;5.33;100.00;98505.47;5035496;28;19928;-75
2023/03/08 01:08:01;;;;;;;;;;;;;;;5.36;100.00;98512.19;5046386;28;19934;-74
2023/03/08 01:10:28;;;;;;;;;;;;;;;5.31;100.00;98512.63;5026134;28;19916;-75
2023/03/08 01:12:53;;;;;;;;;;;;;;;5.19;100.00;98511.06;5043927;28;19932;-74
2023/03/08 01:15:20;;;;;;;;;;;;;;;4.97;100.00;98505.22;5041342;28;19916;-75
2023/03/08 01:17:45;;;;;;;;;;;;;;;5.02;100.00;98496.03;5042315;28;19917;-74
2023/03/08 01:20:11;;;;;;;;;;;;;;;4.96;100.00;98496.56;5042834;28;19925;-73
2023/03/08 01:22:38;;;;;;;;;;;;;;;4.83;100.00;98498.59;5030846;28;19990;-74
2023/03/08 01:25:04;;;;;;;;;;;;;;;4.69;100.00;98502.41;5040448;28;19996;-74
2023/03/08 01:27:30;;;;;;;;;;;;;;;4.74;100.00;98507.22;5043397;28;19981;-75
2023/03/08 01:29:55;;;;;;;;;;;;;;;4.67;100.00;98506.09;5030798;28;19944;-76
2023/03/08 01:32:22;;;;;;;;;;;;;;;4.42;100.00;98497.72;5042336;28;20304;-74
2023/03/08 01:34:48;;;;;;;;;;;;;;;4.40;100.00;98502.28;5041601;28;19924;-74
2023/03/08 01:37:13;;;;;;;;;;;;;;;4.34;100.00;98491.50;5041292;28;19924;-75
2023/03/08 01:39:40;;;;;;;;;;;;;;;4.35;100.00;98490.56;5014640;28;19995;-74
2023/03/08 01:42:06;;;;;;;;;;;;;;;4.33;100.00;98480.22;5043318;28;20016;-75
2023/03/08 01:44:48;;;;;;;;;;;;;;;4.44;100.00;98480.16;5033596;28;19947;-75
2023/03/08 01:47:24;;;;;;;;;;;;;;;4.51;100.00;98476.06;5041167;28;20023;-75
2023/03/08 01:50:12;;;;;;;;;;;;;;;4.60;100.00;98478.81;5025002;28;19921;-74
2023/03/08 01:52:42;;;;;;;;;;;;;;;4.51;100.00;98481.28;5039182;28;19921;-75
2023/03/08 01:55:09;;;;;;;;;;;;;;;4.49;100.00;98477.97;5042912;28;19920;-74
2023/03/08 01:57:39;;;;;;;;;;;;;;;4.50;100.00;98463.94;5024361;28;19921;-75
2023/03/08 02:00:08;;;;;;;;;;;;;;;4.41;100.00;98467.34;5040906;28;19932;-75
2023/03/08 02:02:48;;;;;;;;;;;;;;;4.50;100.00;98469.16;5038417;28;20391;-75
2023/03/08 02:05:15;;;;;;;;;;;;;;;4.45;100.00;98476.56;5030749;28;19925;-74
2023/03/08 02:07:41;;;;;;;;;;;;;;;4.38;100.00;98475.44;5027283;28;19924;-74
2023/03/08 02:10:08;;;;;;;;;;;;;;;4.30;100.00;98467.41;5042598;28;19943;-73
2023/03/08 02:12:34;;;;;;;;;;;;;;;4.04;100.00;98479.22;5025094;28;20389;-74
2023/03/08 02:15:01;;;;;;;;;;;;;;;3.82;100.00;98471.53;5041673;28;20438;-74
2023/03/08 02:17:27;;;;;;;;;;;;;;;3.78;100.00;98472.72;5039303;28;20364;-74
2023/03/08 02:19:52;;;;;;;;;;;;;;;3.79;100.00;98472.59;5042356;28;19921;-75
2023/03/08 02:22:18;;;;;;;;;;;;;;;3.80;100.00;98473.44;5032345;28;20011;-74
2023/03/08 02:24:44;;;;;;;;;;;;;;;3.84;100.00;98472.22;5024909;28;19968;-74
2023/03/08 02:27:13;;;;;;;;;;;;;;;3.88;100.00;98477.09;5042537;28;19959;-74
2023/03/08 02:29:38;;;;;;;;;;;;;;;3.91;100.00;98479.44;5041849;28;19927;-75
2023/03/08 02:32:04;;;;;;;;;;;;;;;3.81;100.00;98480.31;5038806;28;19921;-75
2023/03/08 02:34:30;;;;;;;;;;;;;;;3.89;100.00;98483.13;5042169;28;20349;-74
2023/03/08 02:36:57;;;;;;;;;;;;;;;3.97;100.00;98476.31;5015841;28;19921;-75
2023/03/08 02:39:22;;;;;;;;;;;;;;;4.00;100.00;98477.84;5041900;28;20336;-74
2023/03/08 02:41:47;;;;;;;;;;;;;;;4.03;100.00;98485.41;5040422;28;19921;-75
2023/03/08 02:44:13;;;;;;;;;;;;;;;3.79;100.00;98487.44;5029445;28;19928;-75
2023/03/08 02:46:38;;;;;;;;;;;;;;;3.76;100.00;98488.53;5031820;28;19927;-73
2023/03/08 02:49:04;;;;;;;;;;;;;;;3.56;100.00;98486.72;5038293;28;19922;-75
2023/03/08 02:51:29;;;;;;;;;;;;;;;3.48;100.00;98481.28;5041558;28;19925;-75
2023/03/08 02:53:56;;;;;;;;;;;;;;;3.53;100.00;98482.59;5029217;28;19928;-76
2023/03/08 02:56:22;;;;;;;;;;;;;;;3.26;100.00;98479.56;5026756;28;19921;-77
2023/03/08 02:58:48;;;;;;;;;;;;;;;3.24;100.00;98478.91;5039862;28;20399;-76
2023/03/08 03:01:14;;;;;;;;;;;;;;;3.22;100.00;98478.19;5029786;28;19925;-74
2023/03/08 03:03:40;;;;;;;;;;;;;;;3.24;100.00;98481.50;5031347;28;19990;-72
2023/03/08 03:06:13;;;;;;;;;;;;;;;3.30;100.00;98480.97;5038436;28;19921;-73
2023/03/08 03:08:39;;;;;;;;;;;;;;;3.36;100.00;98479.69;5023845;28;20371;-73
2023/03/08 03:11:18;;;;;;;;;;;;;;;3.41;100.00;98467.09;5023928;28;19921;-75
2023/03/08 03:13:47;;;;;;;;;;;;;;;3.42;100.00;98472.16;5038076;28;20389;-75
2023/03/08 03:16:14;;;;;;;;;;;;;;;3.39;100.00;98477.66;5023429;28;20269;-75
2023/03/08 03:18:40;;;;;;;;;;;;;;;3.34;100.00;98471.97;5023724;28;20032;-75
2023/03/08 03:21:07;;;;;;;;;;;;;;;3.42;100.00;98469.56;5041644;28;20588;-76
2023/03/08 03:23:33;;;;;;;;;;;;;;;3.49;100.00;98464.69;5036881;28;20369;-74
2023/03/08 03:26:04;;;;;;;;;;;;;;;3.35;100.00;98471.03;5036083;28;20377;-74
2023/03/08 03:28:29;;;;;;;;;;;;;;;3.30;100.00;98476.59;5035624;28;19925;-74
2023/03/08 03:30:58;;;;;;;;;;;;;;;3.21;100.00;98477.34;5027653;28;20342;-73
2023/03/08 03:33:23;;;;;;;;;;;;;;;3.15;100.00;98480.44;5027395;28;20567;-74
2023/03/08 03:35:49;;;;;;;;;;;;;;;3.21;100.00;98482.56;5035770;28;19928;-74
2023/03/08 03:38:15;;;;;;;;;;;;;;;3.25;100.00;98483.97;5033969;28;20012;-74
2023/03/08 03:40:43;;;;;;;;;;;;;;;3.29;100.00;98489.78;5015546;28;19960;-75
2023/03/08 03:43:09;;;;;;;;;;;;;;;3.16;100.00;98502.13;5045604;28;19952;-75
2023/03/08 03:45:34;;;;;;;;;;;;;;;3.04;100.00;98495.28;5028256;28;19921;-74
2023/03/08 03:48:00;;;;;;;;;;;;;;;3.02;100.00;98500.59;5045630;28;19921;-74
2023/03/08 03:50:26;;;;;;;;;;;;;;;3.12;100.00;98479.88;5031822;28;19967;-73
2023/03/08 03:53:03;;;;;;;;;;;;;;;3.16;100.00;98484.72;5035439;28;19928;-73
2023/03/08 03:55:30;;;;;;;;;;;;;;;3.02;100.00;98486.75;5044923;28;19932;-73
2023/03/08 03:57:55;;;;;;;;;;;;;;;2.91;100.00;98491.97;5032311;28;20016;-73
2023/03/08 04:00:21;;;;;;;;;;;;;;;2.93;100.00;98492.69;5043457;28;19925;-74
2023/03/08 04:02:56;;;;;;;;;;;;;;;3.02;100.00;98481.53;5042418;28;20430;-73
2023/03/08 04:05:22;;;;;;;;;;;;;;;3.16;100.00;98481.28;5029874;28;19920;-74
2023/03/08 04:07:51;;;;;;;;;;;;;;;3.18;100.00;98492.41;5027074;28;19925;-75
2023/03/08 04:10:18;;;;;;;;;;;;;;;3.25;100.00;98491.78;5042736;28;20344;-75
2023/03/08 04:12:47;;;;;;;;;;;;;;;3.34;100.00;98498.06;5028725;28;20019;-75
2023/03/08 04:15:12;;;;;;;;;;;;;;;3.23;100.00;98505.91;5033873;28;19921;-75
2023/03/08 04:17:38;;;;;;;;;;;;;;;3.16;100.00;98504.72;5042140;28;19928;-75
2023/03/08 04:20:05;;;;;;;;;;;;;;;3.13;100.00;98510.19;5035603;28;20269;-74
2023/03/08 04:22:35;;;;;;;;;;;;;;;3.11;100.00;98506.88;5022898;28;20377;-75
2023/03/08 04:25:11;;;;;;;;;;;;;;;2.93;100.00;98518.75;5024747;28;19931;-75
2023/03/08 04:27:43;;;;;;;;;;;;;;;2.71;100.00;98524.81;5027122;28;19921;-75
2023/03/08 04:30:09;;;;;;;;;;;;;;;2.64;100.00;98514.03;5026544;28;19921;-75
2023/03/08 04:32:35;;;;;;;;;;;;;;;2.56;100.00;98505.13;5044974;28;19927;-76
2023/03/08 04:35:01;;;;;;;;;;;;;;;2.38;100.00;98512.59;5034047;28;20374;-75
2023/03/08 04:37:29;;;;;;;;;;;;;;;2.31;100.00;98516.59;5031238;28;20410;-75
2023/03/08 04:40:03;;;;;;;;;;;;;;;2.23;100.00;98524.16;5034934;28;19931;-75
2023/03/08 04:42:31;;;;;;;;;;;;;;;2.34;100.00;98511.16;5027641;28;19936;-75
2023/03/08 04:44:57;;;;;;;;;;;;;;;2.47;100.00;98511.91;5034869;28;19928;-74
2023/03/08 04:47:24;;;;;;;;;;;;;;;2.57;100.00;98507.63;5032061;28;19921;-75
2023/03/08 04:49:49;;;;;;;;;;;;;;;2.58;100.00;98508.47;5043434;28;20012;-74
2023/03/08 04:52:15;;;;;;;;;;;;;;;2.63;100.00;98501.13;5034704;28;19921;-75
2023/03/08 04:54:41;;;;;;;;;;;;;;;2.72;100.00;98505.59;5015835;28;19928;-75
2023/03/08 04:57:27;;;;;;;;;;;;;;;2.77;100.00;98504.28;5042363;28;19931;-74
2023/03/08 04:59:55;;;;;;;;;;;;;;;2.77;100.00;98514.72;5040926;28;19925;-75
2023/03/08 05:02:21;;;;;;;;;;;;;;;2.79;100.00;98517.22;5029116;28;19932;-75
2023/03/08 05:04:47;;;;;;;;;;;;;;;2.87;100.00;98520.91;5027358;28;20385;-75
2023/03/08 05:07:13;;;;;;;;;;;;;;;2.93;100.00;98523.97;5034601;28;20042;-75
2023/03/08 05:09:39;;;;;;;;;;;;;;;3.02;100.00;98528.44;5033556;28;20399;-75
2023/03/08 05:12:04;;;;;;;;;;;;;;;3.06;100.00;98537.69;5026502;28;20015;-74
2023/03/08 05:14:45;;;;;;;;;;;;;;;3.00;100.00;98540.78;5025768;28;20393;-76
2023/03/08 05:17:10;;;;;;;;;;;;;;;3.02;100.00;98544.91;5034091;28;19929;-75
2023/03/08 05:19:37;;;;;;;;;;;;;;;2.97;100.00;98535.78;5025630;28;19931;-76
2023/03/08 05:22:04;;;;;;;;;;;;;;;2.72;100.00;98542.91;5026531;28;19943;-75
2023/03/08 05:24:31;;;;;;;;;;;;;;;2.56;100.00;98552.84;5039742;28;20243;-74
2023/03/08 05:27:00;;;;;;;;;;;;;;;2.23;100.00;98555.41;5043551;28;20341;-75
2023/03/08 05:29:25;;;;;;;;;;;;;;;2.17;100.00;98566.28;5040061;28;19929;-73
2023/03/08 05:31:50;;;;;;;;;;;;;;;2.22;100.00;98558.94;5042319;28;19932;-74
2023/03/08 05:34:17;;;;;;;;;;;;;;;2.29;100.00;98547.13;5041900;28;19928;-73
2023/03/08 05:36:45;;;;;;;;;;;;;;;2.25;100.00;98543.91;5023485;28;20008;-74
2023/03/08 05:39:11;;;;;;;;;;;;;;;2.24;100.00;98552.66;5025220;28;20011;-74
2023/03/08 05:41:43;;;;;;;;;;;;;;;2.41;100.00;98560.06;5043452;28;20359;-75
2023/03/08 05:44:10;;;;;;;;;;;;;;;2.40;100.00;98562.78;5032163;28;19932;-74
2023/03/08 05:46:39;;;;;;;;;;;;;;;2.42;100.00;98571.28;5021617;28;19921;-75
2023/03/08 05:49:06;;;;;;;;;;;;;;;2.44;100.00;98574.59;5025012;28;20008;-75
2023/03/08 05:51:33;;;;;;;;;;;;;;;2.38;100.00;98564.66;5042989;28;20441;-75
2023/03/08 05:53:59;;;;;;;;;;;;;;;2.46;100.00;98568.34;5021586;28;20226;-75
2023/03/08 05:56:25;;;;;;;;;;;;;;;2.46;100.00;98565.75;5043293;28;19936;-74
2023/03/08 05:59:14;;;;;;;;;;;;;;;2.50;100.00;98568.09;5042092;28;19920;-75
2023/03/08 06:01:40;;;;;;;;;;;;;;;2.31;100.00;98579.06;5025486;28;19928;-75
2023/03/08 06:04:15;;;;;;;;;;;;;;;2.27;100.00;98564.63;5044149;28;19921;-74
2023/03/08 06:06:43;;;;;;;;;;;;;;;2.34;100.00;98564.06;5039778;28;19920;-74
2023/03/08 06:09:09;;;;;;;;;;;;;;;2.41;100.00;98573.09;5025204;28;19928;-75
2023/03/08 06:11:38;;;;;;;;;;;;;;;2.44;100.00;98579.81;5031203;28;19956;-75
2023/03/08 06:14:05;;;;;;;;;;;;;;;2.40;100.00;98574.03;5032516;28;19928;-75
2023/03/08 06:16:32;;;;;;;;;;;;;;;2.38;100.00;98582.88;5025857;28;20010;-75
2023/03/08 06:18:57;;;;;;;;;;;;;;;2.40;100.00;98583.59;5033534;28;19948;-75
2023/03/08 06:21:24;;;;;;;;;;;;;;;2.52;100.00;98582.69;5033469;28;19928;-76
2023/03/08 06:23:57;;;;;;;;;;;;;;;2.59;100.00;98588.25;5031851;28;19920;-77
2023/03/08 06:26:23;;;;;;;;;;;;;;;2.63;100.00;98585.31;5020537;28;19925;-76
2023/03/08 06:28:48;;;;;;;;;;;;;;;2.73;100.00;98578.44;5014956;28;20389;-75
2023/03/08 06:31:15;;;;;;;;;;;;;;;2.76;100.00;98570.41;5034284;28;19929;-74
2023/03/08 06:33:41;;;;;;;;;;;;;;;2.78;100.00;98578.91;5022904;28;20392;-74
2023/03/08 06:36:27;;;;;;;;;;;;;;;2.82;100.00;98580.34;5026201;28;20614;-75
2023/03/08 06:38:53;;;;;;;;;;;;;;;2.99;100.00;98602.50;5026728;28;19921;-75
2023/03/08 06:41:19;;;;;;;;;;;;;;;3.12;100.00;98618.81;5039622;28;20306;-73
2023/03/08 06:43:49;;;;;;;;;;;;;;;3.17;100.00;98616.72;5033419;28;19948;-75
2023/03/08 06:46:15;;;;;;;;;;;;;;;3.26;100.00;98615.16;5035096;28;19972;-77
2023/03/08 06:48:42;;;;;;;;;;;;;;;3.41;100.00;98613.13;5015849;28;19925;-75
2023/03/08 06:51:08;;;;;;;;;;;;;;;3.42;100.00;98615.59;5022755;28;19931;-74
2023/03/08 06:53:40;;;;;;;;;;;;;;;3.03;100.00;98616.09;5023424;28;20364;-76
2023/03/08 06:56:08;;;;;;;;;;;;;;;2.98;100.00;98626.91;5033204;28;19920;-75
2023/03/08 06:58:34;;;;;;;;;;;;;;;3.05;100.00;98622.03;5035014;28;20014;-77
2023/03/08 07:01:00;;;;;;;;;;;;;;;3.10;100.00;98625.94;5042873;28;20377;-77
2023/03/08 07:03:25;;;;;;;;;;;;;;;3.22;100.00;98634.59;5042171;28;19925;-77
2023/03/08 07:05:51;;;;;;;;;;;;;;;3.36;100.00;98642.16;5055585;28;19931;-81
2023/03/08 07:08:17;;;;;;;;;;;;;;;3.37;100.00;98632.56;5048714;28;19935;-78
2023/03/08 07:10:43;;;;;;;;;;;;;;;3.56;100.00;98633.63;5041310;28;20384;-80
2023/03/08 07:13:08;;;;;;;;;;;;;;;3.63;100.00;98645.22;5040886;28;19980;-81
2023/03/08 07:15:38;;;;;;;;;;;;;;;3.71;100.00;98637.59;5040826;28;19921;-79
2023/03/08 07:18:03;;;;;;;;;;;;;;;3.80;100.00;98635.22;5046490;28;19988;-80
2023/03/08 07:20:29;;;;;;;;;;;;;;;3.77;100.00;98630.25;5041014;28;19959;-80
2023/03/08 07:22:54;;;;;;;;;;;;;;;3.90;100.00;98607.44;5040425;28;19928;-81
2023/03/08 07:25:20;;;;;;;;;;;;;;;4.03;100.00;98584.59;5046955;28;19921;-80
2023/03/08 07:27:46;;;;;;;;;;;;;;;4.20;100.00;98581.44;5040920;28;19917;-80
2023/03/08 07:30:13;;;;;;;;;;;;;;;4.36;100.00;98597.50;5034766;28;19973;-82
2023/03/08 07:32:39;;;;;;;;;;;;;;;4.56;100.00;98615.91;5042914;28;20015;-81
2023/03/08 07:35:05;;;;;;;;;;;;;;;4.63;100.00;98619.66;5032933;28;20285;-81
2023/03/08 07:37:31;;;;;;;;;;;;;;;4.67;100.00;98610.63;5033876;28;19925;-81
2023/03/08 07:39:56;;;;;;;;;;;;;;;4.51;100.00;98617.13;5039763;28;19917;-81
2023/03/08 07:42:22;;;;;;;;;;;;;;;4.48;100.00;98617.38;5039960;28;19921;-80
2023/03/08 07:44:53;;;;;;;;;;;;;;;4.38;100.00;98632.16;5012875;28;19921;-80
2023/03/08 07:47:19;;;;;;;;;;;;;;;4.33;100.00;98634.31;5034531;28;20266;-80
2023/03/08 07:49:44;;;;;;;;;;;;;;;4.37;100.00;98653.16;5033414;28;19921;-81
2023/03/08 07:52:10;;;;;;;;;;;;;;;4.21;100.00;98661.44;5031262;28;19921;-80
2023/03/08 07:54:35;;;;;;;;;;;;;;;4.24;100.00;98666.38;5045422;28;19930;-81
2023/03/08 07:57:01;;;;;;;;;;;;;;;4.36;100.00;98660.16;5038239;28;20002;-79
2023/03/08 07:59:27;;;;;;;;;;;;;;;4.58;100.00;98668.88;5042152;28;20008;-79
2023/03/08 08:01:52;;;;;;;;;;;;;;;4.81;100.00;98675.63;5043278;28;19921;-79
2023/03/08 08:04:18;;;;;;;;;;;;;;;4.91;100.00;98682.56;5045131;28;20008;-80
2023/03/08 08:06:43;;;;;;;;;;;;;;;5.12;100.00;98694.81;5038190;28;19921;-79
2023/03/08 08:09:11;;;;;;;;;;;;;;;5.14;100.00;98698.94;5038795;28;19921;-80
2023/03/08 08:11:37;;;;;;;;;;;;;;;5.25;100.00;98687.56;5042280;28;19943;-80
2023/03/08 08:14:03;;;;;;;;;;;;;;;5.35;100.00;98705.00;5049881;28;19968;-81
2023/03/08 08:16:28;;;;;;;;;;;;;;;5.42;100.00;98707.09;5049746;28;19921;-81
2023/03/08 08:18:54;;;;;;;;;;;;;;;5.48;100.00;98714.41;5042465;28;19921;-80
2023/03/08 08:21:20;;;;;;;;;;;;;;;5.45;100.00;98722.50;5040091;28;19925;-79
2023/03/08 08:23:46;;;;;;;;;;;;;;;5.49;100.00;98723.91;5046295;28;19979;-80
2023/03/08 08:26:13;;;;;;;;;;;;;;;5.62;100.00;98708.81;5035548;28;19935;-81
2023/03/08 08:28:39;;;;;;;;;;;;;;;5.79;100.00;98708.16;5047311;28;20349;-78
2023/03/08 08:31:06;;;;;;;;;;;;;;;5.94;100.00;98719.16;5040440;28;20278;-78
2023/03/08 08:33:32;;;;;;;;;;;;;;;6.02;100.00;98727.97;5042030;28;20687;-77
2023/03/08 08:35:58;;;;;;;;;;;;;;;6.08;100.00;98724.81;5035232;28;20004;-78
2023/03/08 08:38:23;;;;;;;;;;;;;;;6.22;100.00;98728.03;5042278;28;19927;-77
2023/03/08 08:40:49;;;;;;;;;;;;;;;6.30;100.00;98725.56;5041422;28;20342;-77
2023/03/08 08:43:15;;;;;;;;;;;;;;;6.38;100.00;98733.56;5039703;28;19925;-79
2023/03/08 08:45:45;;;;;;;;;;;;;;;6.43;100.00;98731.34;5037021;28;19920;-79
2023/03/08 08:48:11;;;;;;;;;;;;;;;6.44;100.00;98733.00;5038056;28;19947;-79
2023/03/08 08:50:37;;;;;;;;;;;;;;;6.45;100.00;98747.78;5040920;28;19925;-77
2023/03/08 08:53:02;;;;;;;;;;;;;;;6.55;100.00;98748.59;5034815;28;20255;-77
2023/03/08 08:55:28;;;;;;;;;;;;;;;6.63;100.00;98727.78;5037799;28;20015;-79
2023/03/08 08:57:53;;;;;;;;;;;;;;;6.65;100.00;98704.91;5038806;28;19928;-77
2023/03/08 09:00:19;;;;;;;;;;;;;;;6.63;100.00;98685.84;5035712;28;19921;-78
2023/03/08 09:02:44;;;;;;;;;;;;;;;6.53;100.00;98685.03;5038346;28;19970;-80
2023/03/08 09:05:10;;;;;;;;;;;;;;;6.36;100.00;98693.56;5035869;28;19921;-77
2023/03/08 09:07:35;;;;;;;;;;;;;;;6.35;100.00;98712.88;5019526;28;19933;-78
2023/03/08 09:10:01;;;;;;;;;;;;;;;6.47;100.00;98709.16;5036278;28;20059;-78
2023/03/08 09:12:28;;;;;;;;;;;;;;;6.45;100.00;98693.56;5025425;28;19920;-79
2023/03/08 09:14:53;;;;;;;;;;;;;;;6.58;100.00;98688.06;5042030;28;19920;-79
2023/03/08 09:17:19;;;;;;;;;;;;;;;6.55;100.00;98688.31;5033820;28;19975;-78
2023/03/08 09:19:44;;;;;;;;;;;;;;;6.64;100.00;98684.88;5028953;28;19921;-78
2023/03/08 09:22:10;;;;;;;;;;;;;;;6.66;100.00;98696.03;5017075;28;19921;-79
2023/03/08 09:24:35;;;;;;;;;;;;;;;6.78;100.00;98708.03;5036393;28;20688;-80
2023/03/08 09:27:04;;;;;;;;;;;;;;;6.77;100.00;98709.03;5042557;28;19947;-82
2023/03/08 09:29:30;;;;;;;;;;;;;;;6.85;100.00;98717.00;5040607;28;19927;-77
2023/03/08 09:31:55;;;;;;;;;;;;;;;6.83;100.00;98716.31;5039251;28;20031;-77
2023/03/08 09:34:21;;;;;;;;;;;;;;;6.93;100.00;98719.78;5040464;28;19921;-81
2023/03/08 09:36:46;;;;;;;;;;;;;;;7.03;100.00;98718.91;5041247;28;19921;-77
2023/03/08 09:39:12;;;;;;;;;;;;;;;7.06;100.00;98718.66;5037567;28;20401;-77
2023/03/08 09:41:41;;;;;;;;;;;;;;;7.16;100.00;98719.44;5034108;28;19917;-76
2023/03/08 09:44:17;;;;;;;;;;;;;;;7.18;100.00;98722.78;5037362;28;20294;-76
2023/03/08 09:47:03;;;;;;;;;;;;;;;7.30;100.00;98717.19;5041821;28;19967;-82
2023/03/08 09:49:30;;;;;;;;;;;;;;;7.18;100.00;98722.78;5040862;28;19925;-79
2023/03/08 09:52:00;;;;;;;;;;;;;;;7.18;100.00;98722.78;5044790;28;19928;-81
2023/03/08 09:54:26;;;;;;;;;;;;;;;7.14;100.00;98716.13;5039956;28;19925;-84
2023/03/08 09:56:52;;;;;;;;;;;;;;;6.97;100.00;98717.69;5047418;28;19925;-84
2023/03/08 09:59:32;;;;;;;;;;;;;;;7.12;100.00;98723.34;5052545;28;19967;-82
2023/03/08 10:02:00;;;;;;;;;;;;;;;7.25;100.00;98729.09;5058625;28;19921;-85
2023/03/08 10:04:45;;;;;;;;;;;;;;;7.43;100.00;98731.78;5060037;28;19965;-85
2023/03/08 10:07:26;;;;;;;;;;;;;;;7.60;100.00;98734.50;5056972;28;19921;-83
2023/03/08 10:09:59;;;;;;;;;;;;;;;7.71;100.00;98736.13;5048959;28;19968;-83
2023/03/08 10:12:25;;;;;;;;;;;;;;;7.76;100.00;98736.53;5043346;28;19952;-85
2023/03/08 10:14:53;;;;;;;;;;;;;;;7.90;100.00;98735.19;5060114;28;19921;-84
2023/03/08 10:17:23;;;;;;;;;;;;;;;8.02;100.00;98710.38;5062187;28;19963;-87
2023/03/08 10:19:53;;;;;;;;;;;;;;;8.18;100.00;98700.91;5060703;28;19980;-87
2023/03/08 10:22:23;;;;;;;;;;;;;;;8.30;100.00;98706.81;5058865;28;19912;-86
2023/03/08 10:24:53;;;;;;;;;;;;;;;8.38;100.00;98709.50;5058911;28;19913;-85
2023/03/08 10:27:20;;;;;;;;;;;;;;;8.47;100.00;98713.88;5048988;28;19970;-85
2023/03/08 10:29:50;;;;;;;;;;;;;;;8.50;100.00;98708.31;5063510;28;19928;-86
2023/03/08 10:32:15;;;;;;;;;;;;;;;8.62;100.00;98704.47;5054418;28;19939;-86
2023/03/08 10:34:41;;;;;;;;;;;;;;;8.77;100.00;98701.31;5058251;28;19917;-86
2023/03/08 10:37:07;;;;;;;;;;;;;;;8.89;100.00;98708.00;5030922;28;20010;-87
2023/03/08 10:39:34;;;;;;;;;;;;;;;9.02;100.00;98713.66;5042325;28;20391;-86
2023/03/08 10:42:00;;;;;;;;;;;;;;;9.13;100.00;98716.03;5046265;28;19921;-88
2023/03/08 10:44:29;;;;;;;;;;;;;;;9.22;100.00;98709.88;5034026;28;19924;-88
2023/03/08 10:46:55;;;;;;;;;;;;;;;9.27;100.00;98715.50;5029419;28;20432;-87
2023/03/08 10:49:22;;;;;;;;;;;;;;;9.43;100.00;98723.50;5031181;28;19973;-89
2023/03/08 10:51:55;;;;;;;;;;;;;;;9.55;100.00;98710.88;5027797;28;19921;-87
2023/03/08 10:54:21;;;;;;;;;;;;;;;9.67;100.00;98703.53;5024029;28;19973;-86
2023/03/08 10:57:01;;;;;;;;;;;;;;;9.71;100.00;98704.88;5026771;28;19921;-87
2023/03/08 10:59:31;;;;;;;;;;;;;;;9.81;100.00;98697.69;5016181;28;20026;-87
2023/03/08 11:02:21;;;;;;;;;;;;;;;9.85;100.00;98696.38;5022170;28;20310;-89
2023/03/08 11:04:57;;;;;;;;;;;;;;;9.91;100.00;98687.81;5022850;28;19928;-90
2023/03/08 11:07:26;;;;;;;;;;;;;;;10.04;100.00;98679.47;5030191;28;19921;-87
2023/03/08 11:10:04;;;;;;;;;;;;;;;10.18;100.00;98677.09;5032579;28;20412;-89
2023/03/08 11:12:29;;;;;;;;;;;;;;;10.36;100.00;98676.13;5034104;28;19925;-84
2023/03/08 11:14:54;;;;;;;;;;;;;;;10.56;100.00;98670.38;5040125;28;19976;-85
2023/03/08 11:17:20;;;;;;;;;;;;;;;10.76;100.00;98670.03;5036976;28;19925;-84
2023/03/08 11:20:09;;;;;;;;;;;;;;;10.86;100.00;98668.06;5030721;28;19913;-87
2023/03/08 11:22:55;;;;;;;;;;;;;;;10.92;100.00;98670.84;5038752;28;19924;-88
2023/03/08 11:25:32;;;;;;;;;;;;;;;10.99;100.00;98671.03;5030746;28;19936;-89
2023/03/08 11:27:58;;;;;;;;;;;;;;;11.04;100.00;98661.59;5016672;28;20259;-89
2023/03/08 11:30:23;;;;;;;;;;;;;;;11.06;100.00;98657.00;5023716;28;19932;-88
2023/03/08 11:32:52;;;;;;;;;;;;;;;11.14;100.00;98657.94;5023199;28;19922;-87
2023/03/08 11:35:26;;;;;;;;;;;;;;;11.32;100.00;98664.69;5030710;28;19975;-86
2023/03/08 11:37:55;;;;;;;;;;;;;;;11.48;100.00;98671.75;5033313;28;19933;-87
2023/03/08 11:40:39;;;;;;;;;;;;;;;11.55;100.00;98677.97;5029628;28;19921;-87
2023/03/08 11:43:14;;;;;;;;;;;;;;;11.60;100.00;98696.81;5021640;28;19922;-85
2023/03/08 11:45:58;;;;;;;;;;;;;;;11.63;100.00;98696.47;5029254;28;19920;-85
2023/03/08 11:48:23;;;;;;;;;;;;;;;11.63;100.00;98698.28;5039305;28;19921;-85
2023/03/08 11:51:04;;;;;;;;;;;;;;;11.71;100.00;98692.97;5028071;28;20211;-86
2023/03/08 11:53:48;;;;;;;;;;;;;;;11.78;100.00;98678.91;5013250;28;20011;-86
2023/03/08 11:56:33;;;;;;;;;;;;;;;11.89;100.00;98675.91;5045320;28;19921;-85
2023/03/08 11:59:12;;;;;;;;;;;;;;;11.92;100.00;98658.03;5049468;28;19920;-85
2023/03/08 12:01:44;;;;;;;;;;;;;;;11.93;100.00;98644.66;5048409;28;20340;-85
2023/03/08 12:04:22;;;;;;;;;;;;;;;12.03;100.00;98644.44;5051270;28;20311;-85
2023/03/08 12:06:48;;;;;;;;;;;;;;;12.19;100.00;98644.38;5038625;28;19944;-86
2023/03/08 12:09:16;;;;;;;;;;;;;;;12.29;100.00;98639.66;5046034;28;19921;-84
2023/03/08 12:11:44;;;;;;;;;;;;;;;12.34;100.00;98636.47;5050438;28;19929;-82
2023/03/08 12:14:13;;;;;;;;;;;;;;;12.43;100.00;98641.53;5052486;28;19920;-84
2023/03/08 12:16:47;;;;;;;;;;;;;;;12.65;100.00;98640.72;5049388;28;19920;-86
2023/03/08 12:19:23;;;;;;;;;;;;;;;12.89;100.00;98633.56;5041322;28;19929;-84
2023/03/08 12:21:51;;;;;;;;;;;;;;;13.11;100.00;98620.25;5046006;28;20063;-83
2023/03/08 12:24:24;;;;;;;;;;;;;;;13.23;100.00;98615.34;5052450;28;19928;-84
2023/03/08 12:27:00;;;;;;;;;;;;;;;13.32;100.00;98613.44;5047358;28;19988;-81
2023/03/08 12:29:44;;;;;;;;;;;;;;;13.42;100.00;98612.16;5058583;28;19996;-86
2023/03/08 12:32:10;;;;;;;;;;;;;;;13.44;99.99;98604.84;5051059;28;19922;-84
2023/03/08 12:34:39;;;;;;;;;;;;;;;13.52;100.00;98596.81;5052270;28;19931;-87
2023/03/08 12:37:17;;;;;;;;;;;;;;;13.68;100.00;98587.81;5025230;28;19920;-83
2023/03/08 12:39:53;;;;;;;;;;;;;;;13.85;100.00;98585.75;5052001;28;19948;-85
2023/03/08 12:42:38;;;;;;;;;;;;;;;13.98;98.87;98588.56;5052345;28;19931;-84
2023/03/08 12:45:25;;;;;;;;;;;;;;;14.03;98.20;98603.91;5041382;28;19921;-77
2023/03/08 12:48:07;;;;;;;;;;;;;;;14.15;98.43;98592.63;5047302;28;19925;-76
2023/03/08 12:50:39;;;;;;;;;;;;;;;14.22;98.19;98593.50;5037611;28;19924;-78
2023/03/08 12:53:23;;;;;;;;;;;;;;;14.34;96.88;98597.31;5042810;28;19964;-77